Terminal Aerodrome Forecast
Issued by NWS Newport/Morehead City, NC

Home | Current Version | Previous Version | Text Only | Print | Product List | Glossary Off
Versions: 1 2 3 4 5 6 7 8 9 10 11 12 13 14 15 16 17 18

000
FTUS42 KMHX 211000 AAA
TAFEWN
TAF AMD
KEWN 211010Z 2110/2206 00000KT 2SM BR SCT003
      TEMPO 2110/2112 1/2SM FG BKN002
     FM211300 25005KT P6SM SCT040
     FM211700 24006KT P6SM VCTS SCT040CB
     FM220100 20003KT P6SM SCT050 BKN150=

USA.gov is the U.S. government's official web portal to all federal, state and local government web resources and services.